Time;durP1;ratioP1;P1;durP2;ratioP2;P2;SDS_P1;SDS_P2;PMS_P1;PMS_P2;Temp;Humidity;BMP_temperature;BMP_pressure;BME280_temperature;BME280_humidity;BME280_pressure;Samples;Min_cycle;Max_cycle;Signal;HPM_P1;HPM_P2
2024/03/30 00:01:08;;;;;;;7.67;6.27;;;;;;;9.26;100.00;96370.78;5058322;28;20728;-78
2024/03/30 00:03:35;;;;;;;8.20;6.27;;;;;;;9.15;100.00;96369.13;5058545;28;20245;-78
2024/03/30 00:06:01;;;;;;;6.97;5.43;;;;;;;9.13;100.00;96365.78;5069724;28;20218;-77
2024/03/30 00:08:28;;;;;;;7.37;5.53;;;;;;;9.10;100.00;96370.50;5054177;28;20221;-78
2024/03/30 00:10:58;;;;;;;7.60;5.60;;;;;;;9.07;100.00;96373.44;5040964;28;20313;-77
2024/03/30 00:13:24;;;;;;;6.10;5.40;;;;;;;9.06;100.00;96374.41;5034220;28;20514;-77
2024/03/30 00:15:51;;;;;;;7.50;5.97;;;;;;;8.97;100.00;96375.22;5034654;28;20212;-77
2024/03/30 00:18:18;;;;;;;9.53;5.70;;;;;;;8.96;100.00;96373.56;5049172;28;20610;-77
2024/03/30 00:20:43;;;;;;;6.77;5.80;;;;;;;8.96;100.00;96373.56;5037427;28;20232;-79
2024/03/30 00:23:10;;;;;;;6.33;5.30;;;;;;;8.89;100.00;96375.09;5053217;28;20245;-77
2024/03/30 00:25:35;;;;;;;6.57;5.50;;;;;;;8.89;100.00;96367.19;5045469;28;20519;-76
2024/03/30 00:28:02;;;;;;;5.93;4.67;;;;;;;8.82;100.00;96363.44;5034898;28;20208;-76
2024/03/30 00:30:29;;;;;;;6.33;5.40;;;;;;;8.86;100.00;96362.19;5049811;28;20689;-77
2024/03/30 00:32:57;;;;;;;6.20;5.17;;;;;;;8.80;100.00;96362.72;5052895;28;20671;-77
2024/03/30 00:35:22;;;;;;;5.90;5.20;;;;;;;8.75;100.00;96360.53;5051479;28;20208;-76
2024/03/30 00:37:51;;;;;;;5.63;5.00;;;;;;;8.75;100.00;96359.72;5052642;28;20230;-76
2024/03/30 00:40:16;;;;;;;6.23;5.03;;;;;;;8.74;100.00;96360.66;5035732;28;20232;-77
2024/03/30 00:42:43;;;;;;;5.70;4.90;;;;;;;8.71;100.00;96363.56;5032537;28;20228;-77
2024/03/30 00:45:08;;;;;;;6.53;4.67;;;;;;;8.66;100.00;96360.50;5032626;28;20247;-77
2024/03/30 00:47:35;;;;;;;6.07;5.07;;;;;;;8.60;100.00;96361.06;5032979;28;20698;-77
2024/03/30 00:50:02;;;;;;;5.63;5.03;;;;;;;8.58;100.00;96363.00;5033733;28;20582;-77
2024/03/30 00:52:29;;;;;;;6.67;5.37;;;;;;;8.60;100.00;96355.78;5044729;28;20204;-77
2024/03/30 00:54:54;;;;;;;6.33;5.30;;;;;;;8.52;100.00;96353.84;5032381;28;20694;-77
2024/03/30 00:57:21;;;;;;;6.10;5.10;;;;;;;8.46;100.00;96358.84;5032317;28;20219;-77
2024/03/30 00:59:46;;;;;;;5.67;4.77;;;;;;;8.37;100.00;96360.47;5032330;28;20221;-77
2024/03/30 01:02:13;;;;;;;5.93;4.87;;;;;;;8.27;100.00;96356.97;5033081;28;20303;-77
2024/03/30 01:04:38;;;;;;;7.03;5.03;;;;;;;8.25;100.00;96358.06;5032808;28;20214;-77
2024/03/30 01:07:06;;;;;;;6.87;5.23;;;;;;;8.19;100.00;96350.69;5033484;28;20215;-77
2024/03/30 01:09:32;;;;;;;6.67;5.43;;;;;;;8.16;100.00;96350.97;5033142;28;20236;-77
2024/03/30 01:11:59;;;;;;;7.57;5.53;;;;;;;8.13;100.00;96354.69;5032812;28;20291;-77
2024/03/30 01:14:27;;;;;;;6.27;5.43;;;;;;;8.14;100.00;96363.44;5037545;28;20214;-77
2024/03/30 01:16:54;;;;;;;7.27;5.60;;;;;;;8.11;100.00;96351.38;5052201;28;20204;-77
2024/03/30 01:19:20;;;;;;;9.67;6.03;;;;;;;8.11;100.00;96353.16;5051519;28;20320;-77
2024/03/30 01:21:47;;;;;;;5.77;5.13;;;;;;;8.10;100.00;96349.72;5038908;28;20211;-77
2024/03/30 01:24:15;;;;;;;8.70;5.67;;;;;;;8.13;100.00;96352.06;5045217;28;20207;-77
2024/03/30 01:26:51;;;;;;;6.33;5.33;;;;;;;8.14;100.00;96347.66;5052022;28;20273;-77
2024/03/30 01:29:23;;;;;;;6.30;5.50;;;;;;;8.14;100.00;96345.03;5039762;28;20205;-77
2024/03/30 01:31:50;;;;;;;9.47;6.87;;;;;;;8.18;100.00;96346.41;5031842;28;20685;-76
2024/03/30 01:34:16;;;;;;;8.70;6.37;;;;;;;8.18;100.00;96333.25;5031805;28;20211;-77
2024/03/30 01:36:43;;;;;;;8.17;6.37;;;;;;;8.22;100.00;96329.41;5031706;28;20208;-77
2024/03/30 01:39:08;;;;;;;9.43;6.80;;;;;;;8.26;100.00;96341.34;5038347;28;20203;-77
2024/03/30 01:41:37;;;;;;;7.73;6.67;;;;;;;8.36;100.00;96323.75;5051560;28;20215;-77
2024/03/30 01:44:04;;;;;;;8.50;6.30;;;;;;;8.38;100.00;96324.47;5065801;22;20204;-81
2024/03/30 01:46:32;;;;;;;7.07;5.70;;;;;;;8.33;100.00;96331.94;5065066;28;20210;-80
2024/03/30 01:48:59;;;;;;;7.20;5.93;;;;;;;8.32;100.00;96322.38;5068764;28;20203;-78
2024/03/30 01:51:27;;;;;;;7.63;6.00;;;;;;;8.25;100.00;96324.72;5060323;28;20320;-80
2024/03/30 01:53:52;;;;;;;7.53;6.03;;;;;;;8.23;100.00;96325.81;5058164;28;20686;-81
2024/03/30 01:56:20;;;;;;;6.93;5.37;;;;;;;8.22;100.00;96318.91;5058497;28;20285;-81
2024/03/30 01:58:48;;;;;;;8.40;5.67;;;;;;;8.23;100.00;96320.56;5057966;28;20222;-80
2024/03/30 02:01:15;;;;;;;6.60;5.80;;;;;;;8.21;100.00;96310.16;5057431;28;20231;-80
2024/03/30 02:03:42;;;;;;;8.30;5.90;;;;;;;8.23;100.00;96316.13;5057012;28;20226;-80
2024/03/30 02:06:09;;;;;;;8.90;5.83;;;;;;;8.18;100.00;96315.66;5039417;28;20235;-79
2024/03/30 02:08:36;;;;;;;8.77;6.73;;;;;;;8.19;100.00;96308.59;5056408;28;20583;-81
2024/03/30 02:11:02;;;;;;;13.27;6.93;;;;;;;8.17;100.00;96306.13;5056360;28;20224;-81
2024/03/30 02:13:28;;;;;;;8.97;6.70;;;;;;;8.18;100.00;96301.66;5056006;28;20196;-80
2024/03/30 02:15:56;;;;;;;7.93;6.87;;;;;;;8.17;100.00;96300.00;5057137;28;20229;-81
2024/03/30 02:18:22;;;;;;;7.97;6.10;;;;;;;8.12;100.00;96300.44;5056878;28;20212;-81
2024/03/30 02:20:48;;;;;;;9.07;6.27;;;;;;;8.12;100.00;96307.47;5063081;28;20330;-80
2024/03/30 02:23:15;;;;;;;7.77;5.83;;;;;;;8.14;100.00;96310.81;5068151;28;20322;-78
2024/03/30 02:25:42;;;;;;;7.50;5.50;;;;;;;8.15;100.00;96308.03;5070399;28;20214;-80
2024/03/30 02:28:07;;;;;;;8.50;5.80;;;;;;;8.11;100.00;96298.75;5065390;28;20211;-79
2024/03/30 02:30:34;;;;;;;8.67;6.03;;;;;;;8.10;100.00;96310.25;5072420;28;20255;-78
2024/03/30 02:33:02;;;;;;;9.83;5.30;;;;;;;8.11;100.00;96317.19;5072418;28;20232;-78
2024/03/30 02:35:29;;;;;;;11.77;5.73;;;;;;;8.12;100.00;96318.00;5071681;28;20210;-78
2024/03/30 02:37:55;;;;;;;13.50;5.60;;;;;;;8.16;100.00;96314.13;5061750;28;20209;-79
2024/03/30 02:40:23;;;;;;;8.43;4.50;;;;;;;8.16;100.00;96308.88;5060952;28;20230;-79
2024/03/30 02:42:49;;;;;;;15.40;5.97;;;;;;;8.20;100.00;96310.31;5027367;28;20227;-80
2024/03/30 02:45:16;;;;;;;14.00;5.37;;;;;;;8.26;100.00;96309.78;5061728;28;20223;-82
2024/03/30 02:47:42;;;;;;;21.63;5.77;;;;;;;8.36;100.00;96305.34;5062334;28;20207;-80
2024/03/30 02:50:09;;;;;;;13.70;4.80;;;;;;;8.49;100.00;96298.84;5061794;28;20241;-80
2024/03/30 02:52:34;;;;;;;13.97;4.17;;;;;;;8.62;100.00;96285.41;5045013;28;20214;-81
2024/03/30 02:55:01;;;;;;;19.40;6.20;;;;;;;8.77;100.00;96289.28;5044954;28;20575;-79
2024/03/30 02:57:28;;;;;;;21.53;5.43;;;;;;;8.86;100.00;96280.53;5045529;28;20294;-80
2024/03/30 02:59:55;;;;;;;18.60;5.53;;;;;;;9.00;100.00;96282.75;5063503;28;20222;-79
2024/03/30 03:02:20;;;;;;;17.33;5.17;;;;;;;9.11;100.00;96282.59;5061784;28;20226;-81
2024/03/30 03:04:47;;;;;;;17.47;4.60;;;;;;;9.19;100.00;96280.06;5062834;28;20752;-79
2024/03/30 03:07:14;;;;;;;18.30;4.43;;;;;;;9.32;100.00;96280.59;5060069;28;20230;-80
2024/03/30 03:09:41;;;;;;;22.77;4.90;;;;;;;9.41;100.00;96264.75;5058592;28;20271;-81
2024/03/30 03:12:07;;;;;;;29.40;5.53;;;;;;;9.55;100.00;96258.19;5058722;28;20305;-81
2024/03/30 03:14:35;;;;;;;20.40;4.27;;;;;;;9.78;100.00;96225.19;5058901;28;20207;-81
2024/03/30 03:17:01;;;;;;;21.17;4.97;;;;;;;9.86;100.00;96226.06;5059935;28;20214;-80
2024/03/30 03:19:28;;;;;;;31.97;5.23;;;;;;;10.20;93.46;96199.91;5059457;28;20225;-81
2024/03/30 03:21:53;;;;;;;24.50;5.30;;;;;;;10.12;94.73;96202.47;5058907;28;20197;-82
2024/03/30 03:24:19;;;;;;;24.33;5.00;;;;;;;10.09;96.66;96221.25;5058857;28;20215;-81
2024/03/30 03:26:45;;;;;;;34.10;5.93;;;;;;;10.07;94.80;96207.38;5058723;28;20214;-81
2024/03/30 03:29:12;;;;;;;18.27;5.47;;;;;;;10.14;95.20;96205.78;5058686;28;20301;-81
2024/03/30 03:31:38;;;;;;;22.10;5.10;;;;;;;10.19;94.07;96193.81;5059122;28;20207;-80
2024/03/30 03:34:05;;;;;;;14.70;4.30;;;;;;;10.27;93.09;96193.88;5057557;28;20239;-80
2024/03/30 03:36:30;;;;;;;22.60;5.33;;;;;;;10.34;91.88;96186.19;5058253;28;20214;-80
2024/03/30 03:38:57;;;;;;;21.47;5.33;;;;;;;10.38;91.07;96179.63;5058789;28;20210;-80
2024/03/30 03:41:22;;;;;;;22.40;5.07;;;;;;;10.37;89.94;96170.03;5057916;28;20233;-80
2024/03/30 03:43:49;;;;;;;24.50;4.77;;;;;;;10.55;81.46;96120.66;5057147;28;20233;-80
2024/03/30 03:46:14;;;;;;;26.17;5.33;;;;;;;10.65;80.47;96131.97;5048816;28;20208;-80
2024/03/30 03:48:42;;;;;;;25.73;4.23;;;;;;;10.74;76.27;96123.09;5058838;28;20226;-80
2024/03/30 03:51:09;;;;;;;20.10;4.30;;;;;;;10.74;77.08;96129.22;5058014;28;20295;-80
2024/03/30 03:53:37;;;;;;;30.83;5.50;;;;;;;10.71;77.40;96131.34;5058099;28;20243;-80
2024/03/30 03:56:02;;;;;;;21.07;6.00;;;;;;;10.74;77.23;96136.31;5057661;28;20231;-81
2024/03/30 03:58:29;;;;;;;19.20;3.90;;;;;;;10.73;76.30;96134.66;5057565;28;20246;-80
2024/03/30 04:00:54;;;;;;;22.07;3.97;;;;;;;10.79;74.48;96123.47;5057061;28;20249;-81
2024/03/30 04:03:21;;;;;;;21.30;4.40;;;;;;;10.81;75.70;96126.78;5060096;28;20231;-81
2024/03/30 04:05:48;;;;;;;18.90;4.60;;;;;;;10.93;72.81;96104.38;5046227;28;20250;-80
2024/03/30 04:08:15;;;;;;;28.30;3.77;;;;;;;11.05;69.07;96092.56;5063342;28;20238;-81
2024/03/30 04:10:40;;;;;;;21.40;4.47;;;;;;;11.02;71.04;96114.03;5062731;28;20628;-80
2024/03/30 04:13:06;;;;;;;17.37;3.83;;;;;;;11.03;71.26;96120.97;5065085;28;20352;-80
2024/03/30 04:15:33;;;;;;;30.47;5.07;;;;;;;11.22;68.18;96099.59;5062047;28;20214;-81
2024/03/30 04:17:59;;;;;;;19.10;3.60;;;;;;;11.14;70.96;96133.91;5059974;28;20719;-78
2024/03/30 04:20:25;;;;;;;22.13;4.33;;;;;;;10.92;74.41;96160.88;5060121;28;20234;-78
2024/03/30 04:22:53;;;;;;;16.20;4.07;;;;;;;10.75;73.05;96135.31;5069245;28;20251;-78
2024/03/30 04:25:18;;;;;;;26.10;4.50;;;;;;;10.75;71.50;96136.16;5073672;28;20204;-80
2024/03/30 04:27:45;;;;;;;20.03;4.87;;;;;;;10.91;68.34;96109.84;5065307;28;20234;-80
2024/03/30 04:30:12;;;;;;;25.50;4.63;;;;;;;10.94;69.23;96121.94;5061772;28;20265;-80
2024/03/30 04:32:39;;;;;;;27.73;5.37;;;;;;;10.89;70.24;96140.88;5076729;28;20192;-79
2024/03/30 04:35:04;;;;;;;18.33;4.43;;;;;;;10.68;73.44;96168.63;5077647;28;20195;-80
2024/03/30 04:37:32;;;;;;;25.47;4.50;;;;;;;10.43;75.88;96185.28;5076781;28;20217;-80
2024/03/30 04:40:00;;;;;;;26.37;5.10;;;;;;;10.29;75.03;96178.72;5071791;28;20246;-80
2024/03/30 04:42:27;;;;;;;20.67;3.80;;;;;;;10.16;74.99;96185.38;5045750;28;20208;-80
2024/03/30 04:44:52;;;;;;;22.10;3.90;;;;;;;10.15;72.02;96162.59;5057267;28;20610;-81
2024/03/30 04:47:19;;;;;;;21.37;4.03;;;;;;;10.17;72.60;96176.47;5058255;28;20279;-81
2024/03/30 04:49:44;;;;;;;18.60;4.67;;;;;;;10.23;72.39;96179.34;5064501;28;20232;-79
2024/03/30 04:52:11;;;;;;;28.80;4.03;;;;;;;10.33;70.75;96158.13;5061247;28;20694;-78
2024/03/30 04:54:36;;;;;;;12.27;3.20;;;;;;;10.18;71.73;96175.47;5061161;28;20205;-77
2024/03/30 04:57:05;;;;;;;24.23;3.80;;;;;;;10.10;70.18;96155.09;5060602;28;20281;-79
2024/03/30 04:59:31;;;;;;;19.50;3.50;;;;;;;10.19;69.09;96146.31;5059757;28;20305;-78
2024/03/30 05:01:57;;;;;;;19.80;4.23;;;;;;;10.47;66.61;96128.53;5060154;28;20206;-80
2024/03/30 05:04:23;;;;;;;24.23;4.43;;;;;;;10.53;66.87;96133.22;5060397;28;20230;-81
2024/03/30 05:06:49;;;;;;;18.47;3.77;;;;;;;10.49;65.79;96118.66;5061283;28;20273;-82
2024/03/30 05:09:15;;;;;;;12.30;3.07;;;;;;;10.53;65.46;96117.38;5062400;28;20202;-80
2024/03/30 05:11:41;;;;;;;16.13;3.33;;;;;;;10.54;65.78;96121.66;5069098;28;20222;-79
2024/03/30 05:14:09;;;;;;;13.57;3.73;;;;;;;10.63;65.64;96113.63;5065584;28;20210;-80
2024/03/30 05:16:35;;;;;;;15.67;3.33;;;;;;;10.63;67.68;96139.19;5059126;28;20230;-79
2024/03/30 05:20:42;;;;;;;12.03;3.67;;;;;;;10.53;70.30;96162.25;5059216;28;20240;-80
2024/03/30 05:21:47;;;;;;;18.20;3.90;;;;;;;10.36;70.69;96168.38;5058060;28;20210;-81
2024/03/30 05:24:14;;;;;;;18.57;3.80;;;;;;;10.32;72.16;96173.13;5058479;28;20296;-80
2024/03/30 05:26:39;;;;;;;18.03;3.07;;;;;;;10.23;73.42;96186.41;5042686;28;20204;-80
2024/03/30 05:29:06;;;;;;;22.63;4.33;;;;;;;10.33;71.40;96171.34;5061231;28;20224;-81
2024/03/30 05:31:33;;;;;;;20.10;4.77;;;;;;;10.58;68.56;96146.78;5061334;28;20238;-81
2024/03/30 05:34:00;;;;;;;21.77;3.13;;;;;;;10.69;67.02;96142.06;5059643;28;20214;-81
2024/03/30 05:36:25;;;;;;;19.30;4.10;;;;;;;10.77;66.71;96138.66;5058450;28;20237;-80
2024/03/30 05:38:52;;;;;;;15.67;3.73;;;;;;;10.83;65.60;96124.84;5059897;28;20227;-80
2024/03/30 05:41:17;;;;;;;17.33;3.47;;;;;;;11.03;65.39;96111.25;5063178;28;20227;-80
2024/03/30 05:43:44;;;;;;;15.47;4.37;;;;;;;11.04;65.34;96114.69;5061306;28;20226;-80
2024/03/30 05:46:09;;;;;;;16.27;3.00;;;;;;;11.16;64.85;96110.78;5057406;28;20690;-80
2024/03/30 05:48:37;;;;;;;19.30;4.30;;;;;;;11.28;64.05;96098.94;5059698;28;20290;-79
2024/03/30 05:51:04;;;;;;;16.40;3.47;;;;;;;11.33;64.82;96117.81;5057816;28;20220;-79
2024/03/30 05:53:31;;;;;;;14.77;3.60;;;;;;;11.54;63.86;96107.63;5054844;28;20200;-79
2024/03/30 05:55:56;;;;;;;18.67;4.10;;;;;;;11.63;63.72;96114.66;5054926;28;20212;-79
2024/03/30 05:58:24;;;;;;;15.40;3.27;;;;;;;11.63;64.40;96122.59;5054745;28;20334;-79
2024/03/30 06:00:49;;;;;;;14.80;2.50;;;;;;;11.67;64.25;96116.00;5057426;28;20609;-79
2024/03/30 06:03:16;;;;;;;10.27;3.07;;;;;;;11.83;63.35;96110.72;5056315;28;20318;-79
2024/03/30 06:05:43;;;;;;;13.53;4.10;;;;;;;11.86;68.38;96172.09;5056696;28;20700;-80
2024/03/30 06:08:09;;;;;;;17.97;3.60;;;;;;;11.85;72.14;96196.91;5056184;28;20294;-80
2024/03/30 06:10:35;;;;;;;15.57;2.67;;;;;;;11.84;73.31;96199.72;5054771;28;20259;-78
2024/03/30 06:13:01;;;;;;;12.37;2.57;;;;;;;11.88;74.81;96209.00;5054589;28;20207;-80
2024/03/30 06:15:27;;;;;;;18.70;4.40;;;;;;;11.97;73.18;96197.44;5055897;28;20201;-79
2024/03/30 06:17:53;;;;;;;14.33;3.77;;;;;;;12.02;72.28;96185.38;5059527;28;20327;-79
2024/03/30 06:20:19;;;;;;;15.27;3.60;;;;;;;12.24;69.95;96168.03;5061838;28;20223;-79
2024/03/30 06:22:47;;;;;;;16.47;3.63;;;;;;;12.35;68.51;96152.66;5061222;28;20228;-80
2024/03/30 06:25:13;;;;;;;16.30;4.27;;;;;;;12.43;67.93;96150.03;5060800;28;20579;-79
2024/03/30 06:27:39;;;;;;;15.57;3.37;;;;;;;12.60;67.25;96142.91;5061875;28;20232;-79
2024/03/30 06:30:06;;;;;;;11.77;3.53;;;;;;;12.63;65.29;96124.00;5064215;28;20242;-80
2024/03/30 06:32:33;;;;;;;14.87;3.90;;;;;;;12.69;68.46;96148.03;5059101;28;20639;-80
2024/03/30 06:34:59;;;;;;;13.00;3.77;;;;;;;12.82;68.34;96155.47;5058272;28;20279;-82
2024/03/30 06:37:25;;;;;;;14.80;4.23;;;;;;;12.90;67.95;96148.31;5057533;28;20235;-81
2024/03/30 06:45:21;;;;;;;14.73;3.37;;;;;;;13.29;63.84;96098.88;5057460;28;20243;-80
2024/03/30 06:47:47;;;;;;;10.73;3.63;;;;;;;13.30;64.18;96115.59;5057878;28;20212;-82
2024/03/30 06:50:14;;;;;;;12.93;3.40;;;;;;;13.39;64.63;96119.91;5056748;28;20233;-80
2024/03/30 06:52:40;;;;;;;11.53;3.30;;;;;;;13.29;66.00;96133.38;5055734;28;20216;-79
2024/03/30 06:55:08;;;;;;;14.40;3.10;;;;;;;13.23;70.13;96173.00;5055889;28;20576;-80
2024/03/30 06:57:35;;;;;;;13.60;3.37;;;;;;;13.12;72.70;96176.00;5038342;28;20214;-80
2024/03/30 07:00:04;;;;;;;17.43;3.63;;;;;;;13.04;74.49;96183.97;5060218;28;20220;-80
2024/03/30 07:02:30;;;;;;;13.57;3.20;;;;;;;12.98;78.40;96200.56;5061043;28;20209;-80
2024/03/30 07:04:56;;;;;;;10.63;3.23;;;;;;;13.00;81.43;96215.31;5059305;28;20595;-79
2024/03/30 07:07:22;;;;;;;15.73;3.57;;;;;;;13.02;86.55;96220.44;5055136;28;20200;-81
2024/03/30 07:09:49;;;;;;;14.70;4.23;;;;;;;12.96;85.70;96198.06;5058929;28;20296;-82
2024/03/30 07:12:16;;;;;;;14.17;3.87;;;;;;;12.87;86.21;96192.91;5059644;28;20205;-81
2024/03/30 07:14:42;;;;;;;15.27;3.97;;;;;;;12.80;86.35;96197.22;5060419;28;20212;-82
2024/03/30 07:17:08;;;;;;;17.07;3.60;;;;;;;12.69;87.73;96205.50;5061012;28;20209;-80
2024/03/30 07:19:35;;;;;;;10.50;2.70;;;;;;;12.52;89.54;96209.13;5058986;28;20228;-78
2024/03/30 07:22:00;;;;;;;10.07;2.83;;;;;;;12.38;91.32;96217.72;5057232;28;20214;-80
2024/03/30 07:24:27;;;;;;;11.90;2.63;;;;;;;12.24;92.69;96227.13;5059475;28;20224;-79
2024/03/30 07:26:53;;;;;;;8.17;2.60;;;;;;;12.21;91.98;96216.88;5059061;28;20276;-79
2024/03/30 07:29:21;;;;;;;10.77;3.00;;;;;;;12.13;88.42;96198.31;5058321;28;20200;-80
2024/03/30 07:31:47;;;;;;;18.30;4.93;;;;;;;12.14;83.82;96177.94;5061524;28;20743;-80
2024/03/30 07:34:13;;;;;;;15.27;3.30;;;;;;;12.19;78.31;96154.47;5065510;28;20228;-81
2024/03/30 07:36:39;;;;;;;11.80;3.60;;;;;;;12.26;75.89;96136.91;5063511;28;20204;-79
2024/03/30 07:39:07;;;;;;;13.30;3.40;;;;;;;12.32;76.04;96141.56;5061039;28;20260;-79
2024/03/30 07:41:32;;;;;;;11.13;3.53;;;;;;;12.37;76.36;96148.03;5063076;28;20226;-80
2024/03/30 07:46:33;;;;;;;10.60;3.37;;;;;;;12.46;77.97;96172.72;5082403;28;20224;-80
2024/03/30 07:48:59;;;;;;;11.47;3.23;;;;;;;12.46;78.31;96178.00;5079312;28;20223;-78
2024/03/30 07:51:25;;;;;;;11.17;2.80;;;;;;;12.46;79.18;96172.72;5079629;28;20722;-78
2024/03/30 07:53:51;;;;;;;10.20;2.83;;;;;;;12.49;78.03;96167.06;5067868;28;20285;-79
2024/03/30 07:56:17;;;;;;;12.00;2.87;;;;;;;12.52;70.99;96109.28;5068821;28;20620;-80
2024/03/30 07:58:43;;;;;;;12.87;3.63;;;;;;;12.60;67.39;96095.19;5064746;28;20197;-82
2024/03/30 08:01:09;;;;;;;10.03;3.43;;;;;;;12.68;67.92;96103.13;5074079;28;20218;-81
2024/03/30 08:03:36;;;;;;;10.97;3.73;;;;;;;12.76;71.80;96150.81;5070411;28;20232;-81
2024/03/30 08:06:03;;;;;;;9.00;2.73;;;;;;;12.66;75.95;96184.63;5075267;28;20268;-79
2024/03/30 08:08:28;;;;;;;6.80;2.90;;;;;;;12.54;78.90;96199.22;5063571;28;20600;-79
2024/03/30 08:10:55;;;;;;;7.27;2.33;;;;;;;12.49;79.83;96198.88;5076920;28;20220;-80
2024/03/30 08:13:21;;;;;;;12.13;2.60;;;;;;;12.48;79.84;96186.63;5073900;28;20196;-78
2024/03/30 08:15:48;;;;;;;9.47;2.30;;;;;;;12.49;81.20;96190.91;5063538;28;20273;-78
2024/03/30 08:18:15;;;;;;;9.87;2.63;;;;;;;12.50;82.49;96192.56;5067300;28;20328;-80
2024/03/30 08:20:43;;;;;;;9.27;2.43;;;;;;;12.53;83.41;96202.84;5065181;28;20256;-80
2024/03/30 08:23:11;;;;;;;8.30;1.93;;;;;;;12.56;83.44;96206.00;5066882;28;20208;-79
2024/03/30 08:25:38;;;;;;;10.40;2.47;;;;;;;12.62;80.65;96188.59;5062855;28;20253;-79
2024/03/30 08:28:04;;;;;;;4.73;1.60;;;;;;;12.71;78.54;96192.94;5062008;28;20204;-80
2024/03/30 08:30:31;;;;;;;9.03;2.33;;;;;;;12.75;76.95;96170.38;5068534;28;20229;-79
2024/03/30 08:32:57;;;;;;;9.43;2.17;;;;;;;12.78;76.41;96178.00;5057527;28;20265;-80
2024/03/30 08:35:24;;;;;;;14.40;3.10;;;;;;;12.85;75.19;96168.41;5062047;28;20229;-78
2024/03/30 08:37:50;;;;;;;13.77;2.70;;;;;;;12.93;71.76;96144.50;5070819;28;20216;-78
2024/03/30 08:40:17;;;;;;;9.37;2.20;;;;;;;13.01;71.32;96148.00;5078503;28;20251;-78
2024/03/30 08:42:43;;;;;;;7.37;2.50;;;;;;;13.02;70.79;96147.00;5073326;28;20204;-78
2024/03/30 08:45:09;;;;;;;13.43;3.10;;;;;;;13.06;66.08;96102.41;5081248;28;20783;-78
2024/03/30 08:47:35;;;;;;;9.43;2.97;;;;;;;13.13;63.81;96084.81;5079553;28;20200;-78
2024/03/30 08:50:04;;;;;;;16.27;3.60;;;;;;;13.16;63.83;96088.00;5070760;28;20240;-78
2024/03/30 08:52:30;;;;;;;12.93;3.03;;;;;;;13.23;62.00;96078.34;5078937;28;20522;-80
2024/03/30 08:54:58;;;;;;;12.13;2.97;;;;;;;13.26;62.55;96093.91;5070314;28;20225;-79
2024/03/30 08:57:23;;;;;;;10.60;2.50;;;;;;;13.32;63.19;96098.53;5075370;28;20204;-78
2024/03/30 08:59:51;;;;;;;12.27;3.77;;;;;;;13.30;62.02;96078.47;5064470;28;20334;-78
2024/03/30 09:02:18;;;;;;;10.03;3.57;;;;;;;13.35;62.46;96092.03;5071224;28;20213;-78
2024/03/30 09:04:44;;;;;;;12.27;2.77;;;;;;;13.39;62.55;96090.72;5060471;28;20709;-79
2024/03/30 09:07:10;;;;;;;15.07;2.67;;;;;;;13.49;61.36;96070.09;5068190;28;20211;-78
2024/03/30 09:09:37;;;;;;;11.83;2.67;;;;;;;13.53;62.00;96068.75;5071631;28;20229;-78
2024/03/30 09:12:05;;;;;;;16.07;3.80;;;;;;;13.56;63.12;96079.84;5058255;28;20211;-78
2024/03/30 09:14:31;;;;;;;13.77;3.43;;;;;;;13.57;69.18;96139.06;5060964;28;20204;-76
2024/03/30 09:17:10;;;;;;;11.03;3.23;;;;;;;13.38;74.78;96181.94;5062538;28;20202;-76
2024/03/30 09:19:38;;;;;;;11.73;2.90;;;;;;;13.22;78.39;96197.88;5052501;28;20231;-79
2024/03/30 09:22:04;;;;;;;12.00;4.20;;;;;;;13.07;81.72;96215.47;5057238;28;20226;-78
2024/03/30 09:24:30;;;;;;;10.43;3.10;;;;;;;12.99;83.30;96218.13;5061675;28;20270;-77
2024/03/30 09:26:56;;;;;;;8.53;2.93;;;;;;;12.96;84.57;96218.47;5077127;28;20208;-78
2024/03/30 09:29:24;;;;;;;6.77;2.53;;;;;;;12.96;84.68;96218.47;5053937;28;20212;-77
2024/03/30 09:31:50;;;;;;;8.73;2.60;;;;;;;12.99;83.52;96210.16;5062971;28;20565;-78
2024/03/30 09:34:16;;;;;;;9.70;3.17;;;;;;;13.03;82.16;96203.53;5071243;28;20213;-77
2024/03/30 09:36:42;;;;;;;13.17;3.03;;;;;;;12.99;76.94;96170.38;5094555;28;20188;-81
2024/03/30 09:39:08;;;;;;;18.97;3.37;;;;;;;13.09;67.33;96102.91;5076757;28;20212;-83
2024/03/30 09:41:41;;;;;;;10.43;3.17;;;;;;;13.30;68.61;96136.81;5079820;28;20261;-79
2024/03/30 09:44:08;;;;;;;22.30;4.20;;;;;;;13.31;71.01;96159.69;5067274;28;20262;-79
2024/03/30 09:46:36;;;;;;;16.37;4.20;;;;;;;13.28;72.00;96173.31;5062696;28;20243;-79
2024/03/30 09:49:05;;;;;;;13.03;3.07;;;;;;;13.31;69.79;96147.28;5062474;28;20209;-78
2024/03/30 09:51:32;;;;;;;15.20;3.17;;;;;;;13.29;69.80;96146.63;5061476;28;20213;-78
2024/03/30 09:54:00;;;;;;;10.10;3.20;;;;;;;13.36;69.87;96149.41;5060138;28;20644;-81
2024/03/30 09:56:28;;;;;;;9.57;2.90;;;;;;;13.37;69.91;96140.44;5061353;28;20218;-81
2024/03/30 09:58:59;;;;;;;11.30;3.00;;;;;;;13.41;69.56;96136.47;5059451;28;20210;-80
2024/03/30 10:01:25;;;;;;;7.30;2.83;;;;;;;13.44;68.86;96133.47;5059557;28;20240;-81
2024/03/30 10:03:52;;;;;;;14.57;2.80;;;;;;;13.50;68.79;96114.22;5059444;28;20234;-78
2024/03/30 10:06:22;;;;;;;9.70;2.13;;;;;;;13.50;68.66;96117.69;5060801;28;20209;-78
2024/03/30 10:08:52;;;;;;;9.73;2.57;;;;;;;13.53;68.04;96100.59;5062106;28;20359;-80
2024/03/30 10:11:20;;;;;;;12.00;3.27;;;;;;;13.57;68.28;96101.91;5061011;28;20229;-79
2024/03/30 10:13:58;;;;;;;7.63;2.00;;;;;;;13.66;67.22;96101.69;5063078;28;20219;-79
2024/03/30 10:16:24;;;;;;;8.83;2.37;;;;;;;13.79;66.10;96098.47;5062678;28;20212;-79
2024/03/30 10:18:50;;;;;;;15.63;3.60;;;;;;;13.85;63.79;96068.56;5063462;28;20242;-79
2024/03/30 10:21:18;;;;;;;12.10;3.50;;;;;;;13.94;64.93;96094.06;5062554;28;20237;-79
2024/03/30 10:23:45;;;;;;;10.73;2.63;;;;;;;14.01;65.95;96110.94;5061430;28;20231;-78
2024/03/30 10:26:16;;;;;;;15.90;3.03;;;;;;;14.09;65.92;96113.53;5057239;28;20234;-78
2024/03/30 10:28:43;;;;;;;14.93;3.20;;;;;;;14.23;64.03;96088.94;5055654;28;20210;-78
2024/03/30 10:31:08;;;;;;;15.07;3.40;;;;;;;14.33;64.67;96100.13;5063097;28;20238;-79
2024/03/30 10:33:36;;;;;;;9.83;2.97;;;;;;;14.45;64.16;96080.09;5063043;28;20301;-78
2024/03/30 10:36:01;;;;;;;12.17;3.37;;;;;;;14.59;61.26;96047.41;5059585;28;20571;-78
2024/03/30 10:38:29;;;;;;;12.80;4.00;;;;;;;14.75;60.97;96052.56;5062767;28;20231;-79
2024/03/30 10:40:55;;;;;;;9.13;2.73;;;;;;;14.95;60.67;96045.69;5044804;28;20242;-78
2024/03/30 10:43:21;;;;;;;8.93;2.50;;;;;;;15.13;60.74;96056.78;5063336;28;20282;-79
2024/03/30 10:45:47;;;;;;;13.00;2.97;;;;;;;15.30;61.64;96072.41;5056610;28;20536;-76
2024/03/30 10:48:14;;;;;;;12.20;3.87;;;;;;;15.47;67.54;96128.97;5058220;28;20234;-85
2024/03/30 10:50:39;;;;;;;13.93;4.03;;;;;;;15.48;72.49;96173.19;5061599;28;20228;-79
2024/03/30 10:53:06;;;;;;;11.33;2.87;;;;;;;15.48;74.96;96174.03;5063993;28;20217;-78
2024/03/30 10:55:37;;;;;;;11.67;3.10;;;;;;;15.52;75.80;96179.81;5065065;28;20275;-78
2024/03/30 10:58:03;;;;;;;13.13;3.47;;;;;;;15.51;75.13;96168.34;5062451;28;20678;-78
2024/03/30 11:00:29;;;;;;;11.03;2.73;;;;;;;15.56;73.60;96154.47;5063492;28;20228;-78
2024/03/30 11:02:59;;;;;;;15.13;3.23;;;;;;;15.60;72.40;96150.44;5064833;28;20210;-78
2024/03/30 11:05:26;;;;;;;7.67;2.80;;;;;;;15.64;70.54;96133.91;5063414;28;20231;-78
2024/03/30 11:07:53;;;;;;;10.43;2.33;;;;;;;15.73;68.82;96118.66;5062788;28;20227;-78
2024/03/30 11:10:19;;;;;;;8.60;1.80;;;;;;;15.79;68.12;96112.56;5062622;28;20243;-78
2024/03/30 11:12:47;;;;;;;8.83;2.60;;;;;;;15.86;66.86;96098.34;5060743;28;20208;-79
2024/03/30 11:15:13;;;;;;;14.47;4.33;;;;;;;15.92;61.92;96049.63;5063521;28;20212;-80
2024/03/30 11:17:45;;;;;;;11.07;3.27;;;;;;;16.08;61.90;96054.69;5062208;28;20239;-75
2024/03/30 11:20:13;;;;;;;16.80;3.63;;;;;;;16.20;59.87;96039.84;5058588;28;20316;-75
2024/03/30 11:22:52;;;;;;;12.83;3.60;;;;;;;16.26;60.79;96055.09;5058285;28;20656;-81
2024/03/30 11:25:20;;;;;;;14.87;3.53;;;;;;;16.31;62.83;96087.31;5058954;28;20656;-78
2024/03/30 11:27:51;;;;;;;10.63;2.60;;;;;;;16.35;66.15;96126.72;5060521;28;20208;-79
2024/03/30 11:30:28;;;;;;;10.37;2.87;;;;;;;16.34;68.70;96141.09;5059873;28;20242;-78
2024/03/30 11:33:06;;;;;;;14.67;3.83;;;;;;;16.28;62.83;96077.88;5059712;28;20188;-79